createdAt,value
2022-09-03T00:01:51.975Z,100.00
2022-09-03T00:04:37.766Z,100.00
2022-09-03T00:07:12.014Z,100.00
2022-09-03T00:10:03.776Z,100.00
2022-09-03T00:12:37.018Z,100.00
2022-09-03T00:15:21.843Z,100.00
2022-09-03T00:18:10.767Z,100.00
2022-09-03T00:20:44.948Z,100.00
2022-09-03T00:23:38.777Z,100.00
2022-09-03T00:26:08.230Z,100.00
2022-09-03T00:28:58.829Z,100.00
2022-09-03T00:31:50.817Z,100.00
2022-09-03T00:34:29.247Z,100.00
2022-09-03T00:37:02.913Z,100.00
2022-09-03T00:39:30.543Z,100.00
2022-09-03T00:42:25.812Z,100.00
2022-09-03T00:45:01.699Z,100.00
2022-09-03T00:47:34.772Z,100.00
2022-09-03T00:50:05.395Z,100.00
2022-09-03T00:52:52.752Z,100.00
2022-09-03T00:55:32.290Z,100.00
2022-09-03T00:58:27.794Z,100.00
2022-09-03T01:00:54.491Z,100.00
2022-09-03T01:03:57.747Z,100.00
2022-09-03T01:06:54.877Z,100.00
2022-09-03T01:09:27.762Z,100.00
2022-09-03T01:12:27.737Z,100.00
2022-09-03T01:15:14.746Z,100.00
2022-09-03T01:17:50.741Z,100.00
2022-09-03T01:20:25.212Z,100.00
2022-09-03T01:23:09.765Z,100.00
2022-09-03T01:26:18.186Z,100.00
2022-09-03T01:29:03.753Z,100.00
2022-09-03T01:31:57.934Z,100.00
2022-09-03T01:35:03.762Z,100.00
2022-09-03T01:37:59.650Z,100.00
2022-09-03T01:41:30.748Z,100.00
2022-09-03T01:44:18.906Z,100.00
2022-09-03T01:46:50.221Z,100.00
2022-09-03T01:49:30.740Z,100.00
2022-09-03T01:52:17.747Z,100.00
2022-09-03T01:55:14.747Z,100.00
2022-09-03T01:57:56.757Z,100.00
2022-09-03T02:00:25.300Z,100.00
2022-09-03T02:02:59.753Z,100.00
2022-09-03T02:05:34.775Z,100.00
2022-09-03T02:08:09.501Z,100.00
2022-09-03T02:10:50.732Z,100.00
2022-09-03T02:13:32.753Z,100.00
2022-09-03T02:16:07.349Z,100.00
2022-09-03T02:18:47.926Z,100.00
2022-09-03T02:21:21.341Z,100.00
2022-09-03T02:23:55.741Z,100.00
2022-09-03T02:26:24.478Z,100.00
2022-09-03T02:28:59.749Z,100.00
2022-09-03T02:31:33.908Z,100.00
2022-09-03T02:34:06.875Z,100.00
2022-09-03T02:36:47.727Z,100.00
2022-09-03T02:39:15.957Z,100.00
2022-09-03T02:41:49.753Z,100.00
2022-09-03T02:44:26.317Z,100.00
2022-09-03T02:47:11.944Z,100.00
2022-09-03T02:49:38.801Z,100.00
2022-09-03T02:52:18.906Z,100.00
2022-09-03T02:54:45.980Z,100.00
2022-09-03T02:57:15.479Z,100.00
2022-09-03T02:59:51.735Z,100.00
2022-09-03T03:02:24.822Z,100.00
2022-09-03T03:04:51.645Z,100.00
2022-09-03T03:07:18.287Z,100.00
2022-09-03T03:09:52.711Z,100.00
2022-09-03T03:12:26.735Z,100.00
2022-09-03T03:14:59.739Z,100.00
2022-09-03T03:17:26.453Z,100.00
2022-09-03T03:19:59.737Z,100.00
2022-09-03T03:22:32.695Z,100.00
2022-09-03T03:24:59.429Z,100.00
2022-09-03T03:27:32.711Z,100.00
2022-09-03T03:29:59.432Z,100.00
2022-09-03T03:32:33.720Z,100.00
2022-09-03T03:35:07.681Z,100.00
2022-09-03T03:37:41.743Z,100.00
2022-09-03T03:40:09.016Z,100.00
2022-09-03T03:42:42.746Z,100.00
2022-09-03T03:45:16.711Z,100.00
2022-09-03T03:47:49.712Z,100.00
2022-09-03T03:50:23.725Z,100.00
2022-09-03T03:52:50.456Z,100.00
2022-09-03T03:55:23.704Z,100.00
2022-09-03T03:57:53.909Z,100.00
2022-09-03T04:00:26.708Z,100.00
2022-09-03T04:02:53.621Z,100.00
2022-09-03T04:05:26.722Z,100.00
2022-09-03T04:07:53.509Z,100.00
2022-09-03T04:10:20.238Z,100.00
2022-09-03T04:12:53.758Z,100.00
2022-09-03T04:15:20.503Z,100.00
2022-09-03T04:17:53.718Z,100.00
2022-09-03T04:20:20.413Z,100.00
2022-09-03T04:22:53.724Z,100.00
2022-09-03T04:25:20.433Z,100.00
2022-09-03T04:27:53.699Z,100.00
2022-09-03T04:30:27.805Z,100.00
2022-09-03T04:33:07.698Z,100.00
2022-09-03T04:35:55.720Z,100.00
2022-09-03T04:38:29.717Z,100.00
2022-09-03T04:40:56.539Z,100.00
2022-09-03T04:43:29.777Z,100.00
2022-09-03T04:46:06.787Z,100.00
2022-09-03T04:48:42.865Z,100.00
2022-09-03T04:51:15.433Z,100.00
2022-09-03T04:53:53.688Z,100.00
2022-09-03T04:56:23.061Z,100.00
2022-09-03T04:59:01.770Z,100.00
2022-09-03T05:01:30.528Z,100.00
2022-09-03T05:03:58.151Z,100.00
2022-09-03T05:06:32.708Z,100.00
2022-09-03T05:09:00.134Z,100.00
2022-09-03T05:11:34.691Z,100.00
2022-09-03T05:14:07.712Z,100.00
2022-09-03T05:16:34.469Z,100.00
2022-09-03T05:19:07.697Z,100.00
2022-09-03T05:21:38.162Z,100.00
2022-09-03T05:24:11.690Z,100.00
2022-09-03T05:26:39.531Z,100.00
2022-09-03T05:29:14.704Z,100.00
2022-09-03T05:31:47.864Z,100.00
2022-09-03T05:34:27.700Z,100.00
2022-09-03T05:36:55.259Z,100.00
2022-09-03T05:39:28.725Z,100.00
2022-09-03T05:41:58.183Z,100.00
2022-09-03T05:44:31.710Z,100.00
2022-09-03T05:46:58.380Z,100.00
2022-09-03T05:49:31.845Z,100.00
2022-09-03T05:51:58.670Z,100.00
2022-09-03T05:54:31.687Z,100.00
2022-09-03T05:56:58.326Z,100.00
2022-09-03T05:59:31.693Z,100.00
2022-09-03T06:02:04.815Z,100.00
2022-09-03T06:04:37.876Z,100.00
2022-09-03T06:07:04.766Z,100.00
2022-09-03T06:09:37.674Z,100.00
2022-09-03T06:12:05.703Z,100.00
2022-09-03T06:14:38.691Z,100.00
2022-09-03T06:17:05.307Z,100.00
2022-09-03T06:19:38.702Z,100.00
2022-09-03T06:22:11.704Z,100.00
2022-09-03T06:24:38.651Z,100.00
2022-09-03T06:27:05.547Z,100.00
2022-09-03T06:29:38.702Z,100.00
2022-09-03T06:32:26.685Z,100.00
2022-09-03T06:34:59.664Z,100.00
2022-09-03T06:37:26.431Z,100.00
2022-09-03T06:40:00.735Z,100.00
2022-09-03T06:42:28.980Z,100.00
2022-09-03T06:45:02.875Z,100.00
2022-09-03T06:47:29.631Z,100.00
2022-09-03T06:50:02.665Z,100.00
2022-09-03T06:52:30.020Z,100.00
2022-09-03T06:55:03.672Z,100.00
2022-09-03T06:57:30.680Z,100.00
2022-09-03T07:00:03.682Z,100.00
2022-09-03T07:02:30.840Z,100.00
2022-09-03T07:05:03.693Z,100.00
2022-09-03T07:07:31.449Z,100.00
2022-09-03T07:10:04.663Z,100.00
2022-09-03T07:12:37.628Z,100.00
2022-09-03T07:15:10.677Z,100.00
2022-09-03T07:17:45.886Z,100.00
2022-09-03T07:20:19.677Z,100.00
2022-09-03T07:22:46.286Z,100.00
2022-09-03T07:25:19.715Z,100.00
2022-09-03T07:27:53.664Z,100.00
2022-09-03T07:30:20.458Z,100.00
2022-09-03T07:32:53.690Z,100.00
2022-09-03T07:35:33.867Z,100.00
2022-09-03T07:38:06.710Z,100.00
2022-09-03T07:40:33.510Z,100.00
2022-09-03T07:43:09.707Z,100.00
2022-09-03T07:45:37.473Z,100.00
2022-09-03T07:48:04.140Z,100.00
2022-09-03T07:50:40.696Z,100.00
2022-09-03T07:53:08.242Z,100.00
2022-09-03T07:55:41.687Z,100.00
2022-09-03T07:58:08.406Z,100.00
2022-09-03T08:00:41.690Z,100.00
2022-09-03T08:03:08.950Z,100.00
2022-09-03T08:05:43.652Z,100.00
2022-09-03T08:08:17.636Z,100.00
2022-09-03T08:10:51.689Z,100.00
2022-09-03T08:13:18.431Z,100.00
2022-09-03T08:16:00.692Z,100.00
2022-09-03T08:18:37.306Z,100.00
2022-09-03T08:21:22.649Z,100.00
2022-09-03T08:23:52.034Z,100.00
2022-09-03T08:26:28.651Z,100.00
2022-09-03T08:28:55.794Z,100.00
2022-09-03T08:31:30.703Z,100.00
2022-09-03T08:34:13.641Z,100.00
2022-09-03T08:36:43.318Z,100.00
2022-09-03T08:39:17.767Z,100.00
2022-09-03T08:41:50.804Z,100.00
2022-09-03T08:44:28.263Z,100.00
2022-09-03T08:47:20.677Z,100.00
2022-09-03T08:49:59.848Z,100.00
2022-09-03T08:52:39.679Z,100.00
2022-09-03T08:55:25.032Z,100.00
2022-09-03T08:58:13.670Z,100.00
2022-09-03T09:01:10.642Z,100.00
2022-09-03T09:03:48.735Z,100.00
2022-09-03T09:06:19.014Z,100.00
2022-09-03T09:08:52.846Z,100.00
2022-09-03T09:11:47.122Z,100.00
2022-09-03T09:14:31.642Z,100.00
2022-09-03T09:17:17.088Z,100.00
2022-09-03T09:19:56.653Z,100.00
2022-09-03T09:22:35.317Z,100.00
2022-09-03T09:25:15.633Z,100.00
2022-09-03T09:27:51.797Z,100.00
2022-09-03T09:30:26.652Z,100.00
2022-09-03T09:33:00.736Z,100.00
2022-09-03T09:35:33.650Z,100.00
2022-09-03T09:38:06.649Z,100.00
2022-09-03T09:40:45.120Z,100.00
2022-09-03T09:43:20.647Z,100.00
2022-09-03T09:45:49.527Z,100.00
2022-09-03T09:48:37.642Z,100.00
2022-09-03T09:51:17.642Z,100.00
2022-09-03T09:53:45.106Z,100.00
2022-09-03T09:56:32.712Z,100.00
2022-09-03T09:59:07.707Z,100.00
2022-09-03T10:01:45.717Z,100.00
2022-09-03T10:04:35.774Z,100.00
2022-09-03T10:07:21.495Z,100.00
2022-09-03T10:10:06.633Z,100.00
2022-09-03T10:12:37.880Z,100.00
2022-09-03T10:15:50.686Z,100.00
2022-09-03T10:18:49.669Z,100.00
2022-09-03T10:21:27.641Z,100.00
2022-09-03T10:24:32.702Z,100.00
2022-09-03T10:27:05.661Z,100.00
2022-09-03T10:29:32.997Z,100.00
2022-09-03T10:32:39.023Z,100.00
2022-09-03T10:35:47.064Z,100.00
2022-09-03T10:38:27.706Z,100.00
2022-09-03T10:41:31.381Z,100.00
2022-09-03T10:44:41.621Z,100.00
2022-09-03T10:47:20.442Z,100.00
2022-09-03T10:50:29.637Z,100.00
2022-09-03T10:53:22.010Z,100.00
2022-09-03T10:56:19.629Z,100.00
2022-09-03T10:59:11.659Z,100.00
2022-09-03T11:02:01.353Z,100.00
2022-09-03T11:04:53.656Z,100.00
2022-09-03T11:07:36.641Z,100.00
2022-09-03T11:10:30.737Z,100.00
2022-09-03T11:13:04.816Z,100.00
2022-09-03T11:15:33.906Z,100.00
2022-09-03T11:18:21.636Z,100.00
2022-09-03T11:20:50.977Z,100.00
2022-09-03T11:23:26.662Z,100.00
2022-09-03T11:26:19.641Z,100.00
2022-09-03T11:29:04.999Z,100.00
2022-09-03T11:32:04.638Z,100.00
2022-09-03T11:34:47.547Z,100.00
2022-09-03T11:37:27.606Z,100.00
2022-09-03T11:40:23.767Z,100.00
2022-09-03T11:42:56.914Z,100.00
2022-09-03T11:45:44.391Z,100.00
2022-09-03T11:48:26.647Z,100.00
2022-09-03T11:51:01.657Z,100.00
2022-09-03T11:53:35.890Z,100.00
2022-09-03T11:56:12.615Z,100.00
2022-09-03T11:58:42.951Z,100.00
2022-09-03T12:01:21.631Z,100.00
2022-09-03T12:03:59.720Z,100.00
2022-09-03T12:06:49.017Z,100.00
2022-09-03T12:09:40.365Z,95.21
2022-09-03T12:12:22.790Z,98.63
2022-09-03T12:15:02.566Z,100.00
2022-09-03T12:17:50.634Z,95.60
2022-09-03T12:20:23.592Z,95.04
2022-09-03T12:22:56.620Z,85.85
2022-09-03T12:25:29.625Z,87.67
2022-09-03T12:28:02.777Z,92.96
2022-09-03T12:30:37.714Z,89.06
2022-09-03T12:33:15.798Z,87.13
2022-09-03T12:36:08.791Z,99.56
2022-09-03T12:39:00.729Z,100.00
2022-09-03T12:41:34.676Z,92.84
2022-09-03T12:44:03.475Z,92.99
2022-09-03T12:46:34.184Z,92.13
2022-09-03T12:52:17.626Z,89.37
2022-09-03T12:55:03.619Z,88.38
2022-09-03T12:57:35.451Z,100.00
2022-09-03T13:00:14.681Z,84.94
2022-09-03T13:02:51.535Z,84.72
2022-09-03T13:05:32.613Z,81.21
2022-09-03T13:08:04.069Z,81.84
2022-09-03T13:10:44.632Z,80.68
2022-09-03T13:13:37.099Z,93.46
2022-09-03T13:16:16.684Z,80.74
2022-09-03T13:19:19.708Z,94.52
2022-09-03T13:22:07.646Z,86.76
2022-09-03T13:25:08.625Z,79.44
2022-09-03T13:28:04.255Z,88.94
2022-09-03T13:30:57.664Z,85.14
2022-09-03T13:33:55.809Z,87.65
2022-09-03T13:37:05.611Z,87.43
2022-09-03T13:39:52.544Z,89.77
2022-09-03T13:42:37.601Z,85.48
2022-09-03T13:45:25.924Z,94.25
2022-09-03T13:48:24.628Z,100.00
2022-09-03T13:51:15.646Z,100.00
2022-09-03T13:53:45.214Z,100.00
2022-09-03T13:57:04.601Z,100.00
2022-09-03T13:59:43.785Z,100.00
2022-09-03T14:02:24.631Z,90.18
2022-09-03T14:05:11.610Z,100.00
2022-09-03T14:08:14.625Z,100.00
2022-09-03T14:10:59.541Z,100.00
2022-09-03T14:13:46.633Z,98.62
2022-09-03T14:16:48.541Z,99.14
2022-09-03T14:19:38.598Z,99.81
2022-09-03T14:22:10.214Z,100.00
2022-09-03T14:25:18.611Z,100.00
2022-09-03T14:27:45.544Z,100.00
2022-09-03T14:30:40.625Z,100.00
2022-09-03T14:33:43.732Z,100.00
2022-09-03T14:36:36.627Z,100.00
2022-09-03T14:39:18.148Z,100.00
2022-09-03T14:42:09.611Z,100.00
2022-09-03T14:44:45.564Z,100.00
2022-09-03T14:47:59.618Z,100.00
2022-09-03T14:50:48.996Z,100.00
2022-09-03T14:53:37.337Z,100.00
2022-09-03T14:56:47.610Z,100.00
2022-09-03T14:59:23.404Z,100.00
2022-09-03T15:02:19.853Z,100.00
2022-09-03T15:05:11.762Z,97.26
2022-09-03T15:07:55.593Z,96.69
2022-09-03T15:11:00.817Z,94.58
2022-09-03T15:13:39.606Z,97.84
2022-09-03T15:16:37.635Z,100.00
2022-09-03T15:19:26.729Z,96.49
2022-09-03T15:22:32.599Z,100.00
2022-09-03T15:25:29.615Z,100.00
2022-09-03T15:28:23.630Z,100.00
2022-09-03T15:30:54.663Z,100.00
2022-09-03T15:33:50.606Z,100.00
2022-09-03T15:36:22.379Z,100.00
2022-09-03T15:39:13.671Z,100.00
2022-09-03T15:41:47.084Z,100.00
2022-09-03T15:44:27.607Z,100.00
2022-09-03T15:47:05.318Z,100.00
2022-09-03T15:50:11.594Z,100.00
2022-09-03T15:52:47.533Z,100.00
2022-09-03T15:55:37.607Z,100.00
2022-09-03T15:58:11.678Z,100.00
2022-09-03T16:01:09.702Z,100.00
2022-09-03T16:04:33.968Z,100.00
2022-09-03T16:07:42.897Z,100.00
2022-09-03T16:10:26.253Z,100.00
2022-09-03T16:13:12.887Z,100.00
2022-09-03T16:16:07.690Z,100.00
2022-09-03T16:18:43.848Z,100.00
2022-09-03T16:21:32.588Z,100.00
2022-09-03T16:24:37.595Z,100.00
2022-09-03T16:27:23.616Z,100.00
2022-09-03T16:30:08.606Z,100.00
2022-09-03T16:32:53.625Z,100.00
2022-09-03T16:35:50.621Z,100.00
2022-09-03T16:38:47.517Z,100.00
2022-09-03T16:41:59.618Z,100.00
2022-09-03T16:44:50.829Z,100.00
2022-09-03T16:48:04.600Z,100.00
2022-09-03T16:51:22.584Z,100.00
2022-09-03T16:54:33.604Z,100.00
2022-09-03T16:57:21.704Z,100.00
2022-09-03T17:00:03.840Z,100.00
2022-09-03T17:02:57.588Z,100.00
2022-09-03T17:05:27.394Z,100.00
2022-09-03T17:08:03.614Z,100.00
2022-09-03T17:10:44.991Z,100.00
2022-09-03T17:13:26.693Z,100.00
2022-09-03T17:16:04.641Z,100.00
2022-09-03T17:18:36.117Z,100.00
2022-09-03T17:21:30.592Z,100.00
2022-09-03T17:24:10.053Z,100.00
2022-09-03T17:26:45.601Z,100.00
2022-09-03T17:29:43.480Z,100.00
2022-09-03T17:33:10.662Z,100.00
2022-09-03T17:36:21.633Z,100.00
2022-09-03T17:38:51.171Z,100.00
2022-09-03T17:41:38.592Z,100.00
2022-09-03T17:44:25.604Z,100.00
2022-09-03T17:47:11.622Z,100.00
2022-09-03T17:49:49.207Z,100.00
2022-09-03T17:52:45.575Z,100.00
2022-09-03T17:55:28.604Z,100.00
2022-09-03T17:58:07.360Z,100.00
2022-09-03T18:00:51.586Z,100.00
2022-09-03T18:03:48.663Z,100.00
2022-09-03T18:06:32.579Z,100.00
2022-09-03T18:09:17.721Z,100.00
2022-09-03T18:11:57.579Z,100.00
2022-09-03T18:14:55.617Z,100.00
2022-09-03T18:17:41.567Z,100.00
2022-09-03T18:20:36.651Z,100.00
2022-09-03T18:23:47.984Z,100.00
2022-09-03T18:26:51.588Z,100.00
2022-09-03T18:29:57.070Z,100.00
2022-09-03T18:32:42.600Z,100.00
2022-09-03T18:35:34.614Z,100.00
2022-09-03T18:38:22.609Z,100.00
2022-09-03T18:41:40.585Z,100.00
2022-09-03T18:45:06.614Z,100.00
2022-09-03T18:48:20.760Z,100.00
2022-09-03T18:51:22.642Z,100.00
2022-09-03T18:54:26.660Z,100.00
2022-09-03T18:57:13.067Z,100.00
2022-09-03T19:00:33.617Z,100.00
2022-09-03T19:03:25.679Z,100.00
2022-09-03T19:07:10.586Z,100.00
2022-09-03T19:10:18.577Z,100.00
2022-09-03T19:13:24.889Z,100.00
2022-09-03T19:16:29.628Z,100.00
2022-09-03T19:19:22.708Z,100.00
2022-09-03T19:22:20.570Z,100.00
2022-09-03T19:25:12.520Z,100.00
2022-09-03T19:28:22.589Z,100.00
2022-09-03T19:31:32.642Z,100.00
2022-09-03T19:34:46.651Z,100.00
2022-09-03T19:37:46.648Z,100.00
2022-09-03T19:41:00.600Z,100.00
2022-09-03T19:44:22.881Z,100.00
2022-09-03T19:47:23.587Z,100.00
2022-09-03T19:50:14.969Z,100.00
2022-09-03T19:53:23.895Z,100.00
2022-09-03T19:56:14.854Z,100.00
2022-09-03T19:59:11.606Z,100.00
2022-09-03T20:01:57.054Z,100.00
2022-09-03T20:04:58.604Z,100.00
2022-09-03T20:07:44.304Z,100.00
2022-09-03T20:10:30.553Z,100.00
2022-09-03T20:13:09.715Z,100.00
2022-09-03T20:15:57.593Z,100.00
2022-09-03T20:18:54.659Z,100.00
2022-09-03T20:21:56.558Z,100.00
2022-09-03T20:25:11.563Z,100.00
2022-09-03T20:28:38.563Z,100.00
2022-09-03T20:31:47.568Z,100.00
2022-09-03T20:35:08.549Z,100.00
2022-09-03T20:38:13.743Z,100.00
2022-09-03T20:41:19.550Z,100.00
2022-09-03T20:44:31.758Z,100.00
2022-09-03T20:47:28.024Z,100.00
2022-09-03T20:50:47.552Z,100.00
2022-09-03T20:54:16.546Z,100.00
2022-09-03T20:57:24.854Z,100.00
2022-09-03T21:00:25.539Z,100.00
2022-09-03T21:03:32.806Z,100.00
2022-09-03T21:06:35.553Z,100.00
2022-09-03T21:09:35.550Z,100.00
2022-09-03T21:12:44.763Z,100.00
2022-09-03T21:15:54.495Z,100.00
2022-09-03T21:18:46.436Z,100.00
2022-09-03T21:21:55.538Z,100.00
2022-09-03T21:25:10.742Z,100.00
2022-09-03T21:28:09.717Z,100.00
2022-09-03T21:31:06.590Z,100.00
2022-09-03T21:34:11.521Z,100.00
2022-09-03T21:37:04.119Z,100.00
2022-09-03T21:40:02.576Z,100.00
2022-09-03T21:43:07.525Z,100.00
2022-09-03T21:46:21.562Z,100.00
2022-09-03T21:49:12.239Z,100.00
2022-09-03T21:52:17.529Z,100.00
2022-09-03T21:55:33.590Z,100.00
2022-09-03T21:58:54.544Z,100.00
2022-09-03T22:01:54.533Z,100.00
2022-09-03T22:04:41.507Z,100.00
2022-09-03T22:07:53.829Z,100.00
2022-09-03T22:10:59.680Z,100.00
2022-09-03T22:14:04.442Z,100.00
2022-09-03T22:17:02.596Z,100.00
2022-09-03T22:19:50.312Z,100.00
2022-09-03T22:22:55.538Z,100.00
2022-09-03T22:25:59.024Z,100.00
2022-09-03T22:29:08.542Z,100.00
2022-09-03T22:32:26.438Z,100.00
2022-09-03T22:35:22.537Z,100.00
2022-09-03T22:39:00.683Z,100.00
2022-09-03T22:42:04.586Z,100.00
2022-09-03T22:45:06.525Z,100.00
2022-09-03T22:48:14.776Z,100.00
2022-09-03T22:51:09.542Z,100.00
2022-09-03T22:54:14.568Z,100.00
2022-09-03T22:57:02.996Z,100.00
2022-09-03T23:00:06.670Z,100.00
2022-09-03T23:03:07.468Z,100.00
2022-09-03T23:06:10.677Z,100.00
2022-09-03T23:09:03.423Z,100.00
2022-09-03T23:12:26.514Z,100.00
2022-09-03T23:15:26.521Z,100.00
2022-09-03T23:18:17.877Z,100.00
2022-09-03T23:21:28.535Z,100.00
2022-09-03T23:24:27.498Z,100.00
2022-09-03T23:27:31.563Z,100.00
2022-09-03T23:30:25.725Z,100.00
2022-09-03T23:33:19.499Z,100.00
2022-09-03T23:40:18.373Z,100.00
2022-09-03T23:43:20.520Z,100.00
2022-09-03T23:46:20.518Z,100.00
2022-09-03T23:49:40.504Z,100.00
2022-09-03T23:53:05.559Z,100.00
2022-09-03T23:56:15.775Z,100.00
2022-09-03T23:59:15.498Z,100.00
